createdAt,value
2018-02-02T00:00:54.002Z,5.09
2018-02-02T00:03:22.512Z,5.18
2018-02-02T00:05:51.010Z,5.22
2018-02-02T00:08:19.505Z,5.16
2018-02-02T00:10:48.022Z,5.08
2018-02-02T00:13:16.481Z,5.10
2018-02-02T00:15:44.967Z,5.06
2018-02-02T00:18:13.469Z,5.07
2018-02-02T00:20:41.974Z,4.96
2018-02-02T00:23:10.478Z,4.93
2018-02-02T00:25:39.036Z,4.81
2018-02-02T00:28:07.503Z,4.66
2018-02-02T00:30:36.012Z,4.53
2018-02-02T00:33:04.474Z,4.66
2018-02-02T00:35:33.009Z,4.83
2018-02-02T00:38:01.480Z,4.82
2018-02-02T00:40:29.983Z,4.91
2018-02-02T00:42:58.442Z,5.09
2018-02-02T00:45:26.945Z,5.16
2018-02-02T00:47:55.438Z,5.16
2018-02-02T00:50:29.421Z,5.29
2018-02-02T00:52:57.929Z,5.35
2018-02-02T00:55:26.439Z,5.24
2018-02-02T00:57:54.898Z,5.24
2018-02-02T01:00:23.390Z,5.21
2018-02-02T01:02:51.885Z,5.33
2018-02-02T01:05:20.361Z,5.09
2018-02-02T01:07:48.814Z,4.96
2018-02-02T01:10:17.323Z,4.91
2018-02-02T01:12:45.841Z,5.02
2018-02-02T01:15:14.320Z,5.06
2018-02-02T01:17:42.778Z,4.98
2018-02-02T01:20:11.273Z,5.05
2018-02-02T01:22:39.811Z,5.10
2018-02-02T01:25:08.289Z,5.04
2018-02-02T01:27:36.770Z,5.07
2018-02-02T01:30:05.286Z,5.25
2018-02-02T01:32:33.788Z,5.30
2018-02-02T01:35:02.256Z,5.31
2018-02-02T01:37:30.764Z,5.17
2018-02-02T01:39:59.285Z,5.35
2018-02-02T01:42:27.741Z,5.15
2018-02-02T01:44:56.210Z,5.14
2018-02-02T01:47:24.717Z,5.23
2018-02-02T01:49:53.178Z,5.34
2018-02-02T01:52:21.677Z,5.28
2018-02-02T01:54:50.186Z,5.12
2018-02-02T01:57:18.685Z,5.14
2018-02-02T01:59:47.180Z,5.20
2018-02-02T02:02:15.669Z,5.36
2018-02-02T02:04:44.125Z,5.43
2018-02-02T02:07:12.626Z,5.49
2018-02-02T02:09:41.086Z,5.58
2018-02-02T02:12:09.586Z,5.57
2018-02-02T02:14:38.090Z,5.64
2018-02-02T02:17:06.621Z,5.55
2018-02-02T02:19:35.085Z,5.26
2018-02-02T02:22:03.535Z,5.48
2018-02-02T02:24:32.023Z,5.53
2018-02-02T02:27:00.470Z,5.58
2018-02-02T02:29:29.016Z,5.65
2018-02-02T02:31:57.553Z,5.85
2018-02-02T02:34:26.057Z,5.99
2018-02-02T02:36:54.530Z,6.05
2018-02-02T02:39:22.998Z,6.08
2018-02-02T02:41:51.518Z,6.08
2018-02-02T02:44:19.982Z,6.03
2018-02-02T02:46:48.478Z,6.06
2018-02-02T02:49:16.969Z,5.93
2018-02-02T02:51:45.426Z,5.93
2018-02-02T02:54:13.918Z,6.18
2018-02-02T02:56:42.369Z,6.25
2018-02-02T02:59:10.861Z,6.29
2018-02-02T03:01:39.353Z,6.29
2018-02-02T03:04:07.850Z,6.37
2018-02-02T03:06:36.354Z,6.48
2018-02-02T03:09:04.978Z,6.48
2018-02-02T03:11:33.433Z,6.55
2018-02-02T03:14:01.952Z,6.64
2018-02-02T03:16:30.418Z,6.69
2018-02-02T03:18:58.926Z,6.70
2018-02-02T03:21:27.403Z,6.65
2018-02-02T03:23:55.905Z,6.72
2018-02-02T03:26:24.405Z,6.61
2018-02-02T03:28:52.892Z,6.47
2018-02-02T03:31:21.416Z,6.68
2018-02-02T03:33:49.909Z,6.69
2018-02-02T03:36:18.369Z,6.54
2018-02-02T03:38:46.882Z,6.38
2018-02-02T03:41:15.337Z,6.27
2018-02-02T03:43:43.829Z,6.41
2018-02-02T03:46:12.281Z,6.49
2018-02-02T03:48:40.749Z,6.56
2018-02-02T03:51:09.209Z,6.55
2018-02-02T03:53:37.725Z,6.35
2018-02-02T03:56:06.191Z,6.53
2018-02-02T03:58:34.651Z,6.58
2018-02-02T04:01:03.144Z,6.63
2018-02-02T04:03:31.609Z,6.60
2018-02-02T04:06:00.104Z,6.55
2018-02-02T04:08:28.569Z,6.53
2018-02-02T04:10:57.073Z,6.56
2018-02-02T04:13:25.569Z,6.44
2018-02-02T04:15:54.025Z,6.49
2018-02-02T04:18:22.512Z,6.47
2018-02-02T04:20:50.981Z,6.52
2018-02-02T04:23:19.488Z,6.50
2018-02-02T04:25:47.944Z,6.54
2018-02-02T04:28:16.458Z,6.62
2018-02-02T04:30:44.907Z,6.53
2018-02-02T04:33:13.353Z,6.66
2018-02-02T04:35:42.041Z,6.62
2018-02-02T04:38:10.537Z,6.48
2018-02-02T04:40:38.999Z,6.46
2018-02-02T04:43:07.522Z,6.31
2018-02-02T04:45:35.995Z,6.24
2018-02-02T04:48:04.509Z,6.20
2018-02-02T04:50:32.976Z,6.28
2018-02-02T04:53:01.465Z,6.29
2018-02-02T04:55:29.935Z,6.37
2018-02-02T04:57:58.429Z,6.07
2018-02-02T05:00:26.881Z,6.26
2018-02-02T05:02:55.378Z,6.24
2018-02-02T05:05:23.882Z,6.25
2018-02-02T05:07:52.370Z,6.14
2018-02-02T05:10:20.837Z,6.16
2018-02-02T05:12:49.373Z,6.11
2018-02-02T05:15:17.833Z,6.16
2018-02-02T05:17:46.325Z,6.08
2018-02-02T05:20:14.821Z,6.24
2018-02-02T05:22:43.325Z,6.34
2018-02-02T05:25:11.781Z,6.34
2018-02-02T05:27:40.283Z,6.45
2018-02-02T05:30:08.781Z,6.48
2018-02-02T05:32:37.242Z,6.51
2018-02-02T05:35:05.709Z,6.52
2018-02-02T05:37:34.213Z,6.49
2018-02-02T05:40:02.715Z,6.53
2018-02-02T05:42:31.218Z,6.54
2018-02-02T05:44:59.773Z,6.55
2018-02-02T05:47:28.229Z,6.57
2018-02-02T05:49:56.678Z,6.59
2018-02-02T05:52:25.220Z,6.54
2018-02-02T05:54:53.673Z,6.56
2018-02-02T05:57:22.169Z,6.56
2018-02-02T05:59:50.630Z,6.18
2018-02-02T06:02:19.179Z,6.25
2018-02-02T06:04:47.637Z,6.11
2018-02-02T06:07:16.178Z,6.27
2018-02-02T06:09:44.682Z,6.14
2018-02-02T06:12:13.173Z,6.25
2018-02-02T06:14:41.633Z,6.31
2018-02-02T06:17:10.122Z,6.29
2018-02-02T06:19:38.647Z,6.27
2018-02-02T06:22:07.205Z,6.36
2018-02-02T06:24:35.677Z,6.29
2018-02-02T06:27:04.172Z,6.43
2018-02-02T06:29:32.666Z,6.57
2018-02-02T06:32:01.137Z,6.68
2018-02-02T06:34:29.654Z,6.67
2018-02-02T06:37:04.642Z,6.71
2018-02-02T06:39:33.156Z,6.76
2018-02-02T06:42:01.650Z,6.88
2018-02-02T06:44:30.145Z,6.95
2018-02-02T06:46:58.588Z,7.01
2018-02-02T06:49:27.099Z,6.99
2018-02-02T06:51:55.569Z,6.98
2018-02-02T06:54:24.077Z,7.14
2018-02-02T06:56:52.547Z,7.26
2018-02-02T06:59:21.069Z,7.32
2018-02-02T07:01:49.544Z,7.40
2018-02-02T07:04:18.962Z,7.46
2018-02-02T07:06:47.446Z,7.52
2018-02-02T07:09:15.909Z,7.35
2018-02-02T07:11:44.422Z,7.42
2018-02-02T07:14:12.891Z,7.29
2018-02-02T07:16:41.402Z,7.13
2018-02-02T07:19:09.954Z,7.32
2018-02-02T07:21:38.432Z,7.49
2018-02-02T07:24:06.949Z,7.56
2018-02-02T07:26:35.428Z,7.61
2018-02-02T07:29:03.913Z,7.45
2018-02-02T07:31:32.451Z,7.65
2018-02-02T07:34:00.923Z,7.76
2018-02-02T07:36:29.462Z,7.80
2018-02-02T07:38:57.938Z,7.99
2018-02-02T07:41:26.449Z,8.08
2018-02-02T07:43:54.926Z,8.26
2018-02-02T07:46:23.418Z,8.20
2018-02-02T07:48:51.902Z,8.29
2018-02-02T07:51:20.450Z,8.50
2018-02-02T07:53:48.999Z,8.68
2018-02-02T07:56:17.478Z,8.71
2018-02-02T07:58:46.014Z,8.97
2018-02-02T08:01:20.053Z,9.05
2018-02-02T08:03:48.585Z,9.27
2018-02-02T08:06:17.081Z,9.40
2018-02-02T08:08:45.607Z,9.61
2018-02-02T08:11:14.109Z,9.70
2018-02-02T08:13:42.590Z,9.83
2018-02-02T08:16:11.093Z,9.71
2018-02-02T08:18:39.554Z,9.93
2018-02-02T08:21:08.066Z,10.07
2018-02-02T08:23:36.537Z,10.25
2018-02-02T08:26:05.053Z,10.19
2018-02-02T08:28:33.586Z,10.25
2018-02-02T08:31:02.093Z,10.40
2018-02-02T08:33:30.593Z,10.67
2018-02-02T08:35:59.070Z,10.76
2018-02-02T08:38:27.538Z,11.01
2018-02-02T08:40:56.073Z,11.10
2018-02-02T08:43:24.541Z,11.11
2018-02-02T08:45:53.133Z,11.28
2018-02-02T08:48:21.675Z,11.15
2018-02-02T08:50:50.153Z,11.06
2018-02-02T08:53:18.617Z,11.35
2018-02-02T08:55:47.145Z,11.23
2018-02-02T08:58:15.697Z,11.56
2018-02-02T09:00:49.702Z,11.66
2018-02-02T09:03:18.201Z,11.95
2018-02-02T09:05:46.760Z,11.91
2018-02-02T09:08:15.225Z,12.10
2018-02-02T09:10:43.741Z,12.07
2018-02-02T09:13:12.219Z,12.18
2018-02-02T09:15:40.701Z,12.08
2018-02-02T09:18:09.202Z,12.45
2018-02-02T09:20:37.669Z,12.20
2018-02-02T09:23:06.139Z,12.44
2018-02-02T09:25:34.642Z,12.56
2018-02-02T09:28:02.586Z,12.64
2018-02-02T09:30:31.108Z,12.28
2018-02-02T09:32:59.605Z,12.58
2018-02-02T09:35:28.125Z,12.21
2018-02-02T09:37:56.694Z,12.48
2018-02-02T09:40:25.250Z,12.58
2018-02-02T09:42:53.772Z,12.40
2018-02-02T09:45:22.241Z,12.25
2018-02-02T09:47:51.558Z,12.22
2018-02-02T09:50:20.074Z,12.23
2018-02-02T09:52:48.683Z,11.47
2018-02-02T09:55:17.148Z,12.16
2018-02-02T09:57:45.661Z,12.19
2018-02-02T10:00:14.177Z,12.26
2018-02-02T10:02:42.686Z,12.25
2018-02-02T10:05:11.205Z,12.17
2018-02-02T10:07:39.713Z,12.36
2018-02-02T10:10:08.221Z,12.68
2018-02-02T10:12:36.685Z,12.85
2018-02-02T10:15:05.185Z,12.97
2018-02-02T10:17:33.670Z,13.13
2018-02-02T10:20:02.185Z,12.97
2018-02-02T10:22:30.649Z,13.34
2018-02-02T10:24:59.154Z,13.11
2018-02-02T10:27:27.623Z,13.18
2018-02-02T10:29:56.103Z,13.46
2018-02-02T10:32:24.557Z,13.62
2018-02-02T10:34:53.069Z,13.48
2018-02-02T10:37:21.534Z,13.22
2018-02-02T10:39:50.054Z,13.29
2018-02-02T10:42:18.532Z,13.23
2018-02-02T10:44:47.001Z,13.44
2018-02-02T10:47:15.526Z,13.59
2018-02-02T10:49:44.037Z,13.50
2018-02-02T10:52:12.510Z,13.39
2018-02-02T10:54:41.024Z,13.32
2018-02-02T10:57:09.550Z,13.23
2018-02-02T10:59:38.022Z,13.23
2018-02-02T11:02:11.889Z,13.01
2018-02-02T11:04:40.390Z,12.47
2018-02-02T11:07:08.883Z,12.61
2018-02-02T11:09:37.346Z,12.67
2018-02-02T11:12:05.917Z,12.82
2018-02-02T11:14:34.378Z,12.72
2018-02-02T11:17:02.895Z,12.78
2018-02-02T11:19:31.363Z,12.80
2018-02-02T11:21:59.865Z,12.84
2018-02-02T11:24:28.385Z,12.93
2018-02-02T11:26:56.893Z,12.75
2018-02-02T11:29:25.397Z,12.86
2018-02-02T11:31:53.892Z,12.88
2018-02-02T11:34:22.417Z,12.94
2018-02-02T11:36:50.883Z,13.01
2018-02-02T11:39:19.323Z,12.89
2018-02-02T11:41:47.819Z,12.75
2018-02-02T11:44:16.330Z,12.85
2018-02-02T11:46:44.845Z,13.00
2018-02-02T11:49:13.346Z,13.10
2018-02-02T11:51:41.851Z,13.08
2018-02-02T11:54:10.321Z,13.23
2018-02-02T11:56:38.822Z,13.20
2018-02-02T11:59:07.263Z,13.33
2018-02-02T12:01:35.809Z,13.46
2018-02-02T12:04:04.279Z,13.54
2018-02-02T12:06:32.788Z,13.24
2018-02-02T12:09:01.308Z,13.55
2018-02-02T12:11:29.822Z,13.20
2018-02-02T12:13:58.327Z,13.65
2018-02-02T12:16:26.841Z,13.74
2018-02-02T12:18:55.384Z,13.62
2018-02-02T12:21:23.937Z,13.79
2018-02-02T12:24:02.918Z,13.91
2018-02-02T12:29:39.034Z,13.83
2018-02-02T12:35:22.177Z,13.73
2018-02-02T12:37:50.788Z,13.24
2018-02-02T12:40:19.379Z,13.52
2018-02-02T12:42:47.910Z,13.60
2018-02-02T12:45:16.448Z,13.71
2018-02-02T12:47:56.733Z,13.76
2018-02-02T12:50:25.254Z,13.86
2018-02-02T12:52:53.878Z,13.88
2018-02-02T12:55:22.390Z,14.09
2018-02-02T12:57:51.597Z,14.15
2018-02-02T13:00:20.119Z,14.13
2018-02-02T13:02:48.585Z,14.23
2018-02-02T13:05:17.058Z,14.21
2018-02-02T13:07:45.571Z,14.39
2018-02-02T13:10:14.075Z,14.44
2018-02-02T13:12:42.582Z,14.35
2018-02-02T13:15:11.085Z,14.42
2018-02-02T13:17:39.557Z,14.39
2018-02-02T13:20:08.113Z,14.42
2018-02-02T13:22:36.801Z,14.41
2018-02-02T13:25:05.333Z,14.36
2018-02-02T13:27:33.840Z,14.20
2018-02-02T13:30:02.282Z,14.27
2018-02-02T13:32:30.860Z,14.40
2018-02-02T13:34:59.345Z,14.48
2018-02-02T13:37:27.873Z,14.51
2018-02-02T13:39:56.393Z,14.40
2018-02-02T13:42:24.905Z,14.26
2018-02-02T13:44:53.447Z,14.39
2018-02-02T13:47:21.959Z,14.43
2018-02-02T13:49:50.470Z,14.41
2018-02-02T13:52:18.945Z,14.37
2018-02-02T13:54:47.482Z,14.28
2018-02-02T13:57:15.995Z,14.30
2018-02-02T13:59:44.453Z,14.35
2018-02-02T14:02:12.966Z,14.32
2018-02-02T14:04:41.431Z,14.28
2018-02-02T14:07:09.930Z,14.18
2018-02-02T14:09:38.401Z,14.20
2018-02-02T14:12:06.910Z,14.25
2018-02-02T14:14:35.373Z,14.13
2018-02-02T14:17:03.878Z,14.29
2018-02-02T14:19:32.386Z,14.24
2018-02-02T14:22:00.904Z,14.26
2018-02-02T14:24:29.422Z,14.14
2018-02-02T14:26:57.929Z,13.98
2018-02-02T14:29:26.390Z,14.04
2018-02-02T14:31:54.858Z,13.89
2018-02-02T14:34:23.381Z,13.87
2018-02-02T14:36:51.885Z,13.84
2018-02-02T14:39:20.353Z,13.74
2018-02-02T14:41:48.865Z,13.71
2018-02-02T14:44:17.341Z,13.70
2018-02-02T14:46:45.806Z,13.65
2018-02-02T14:49:14.313Z,13.48
2018-02-02T14:51:42.786Z,13.44
2018-02-02T14:54:11.292Z,13.40
2018-02-02T14:56:39.797Z,13.31
2018-02-02T14:59:08.352Z,13.17
2018-02-02T15:01:36.829Z,13.25
2018-02-02T15:04:05.403Z,13.15
2018-02-02T15:06:33.858Z,13.16
2018-02-02T15:09:02.322Z,13.18
2018-02-02T15:11:30.837Z,13.16
2018-02-02T15:13:59.343Z,13.11
2018-02-02T15:16:27.837Z,13.00
2018-02-02T15:18:56.354Z,12.98
2018-02-02T15:21:25.029Z,12.92
2018-02-02T15:23:53.577Z,12.77
2018-02-02T15:26:22.153Z,12.72
2018-02-02T15:28:50.710Z,12.62
2018-02-02T15:31:19.180Z,12.54
2018-02-02T15:33:47.646Z,12.55
2018-02-02T15:36:16.173Z,12.57
2018-02-02T15:38:44.690Z,12.43
2018-02-02T15:41:13.150Z,12.51
2018-02-02T15:43:41.599Z,12.59
2018-02-02T15:46:10.153Z,12.61
2018-02-02T15:48:38.650Z,12.59
2018-02-02T15:51:07.193Z,12.58
2018-02-02T15:53:35.698Z,12.49
2018-02-02T15:56:04.288Z,12.48
2018-02-02T15:58:32.762Z,12.41
2018-02-02T16:01:01.321Z,12.33
2018-02-02T16:03:29.764Z,12.26
2018-02-02T16:05:58.300Z,12.25
2018-02-02T16:08:27.025Z,12.23
2018-02-02T16:10:55.527Z,12.14
2018-02-02T16:13:24.018Z,12.15
2018-02-02T16:15:52.509Z,12.13
2018-02-02T16:18:21.004Z,12.02
2018-02-02T16:20:49.511Z,12.07
2018-02-02T16:23:17.979Z,12.01
2018-02-02T16:25:46.504Z,11.78
2018-02-02T16:28:14.966Z,11.65
2018-02-02T16:30:43.482Z,11.78
2018-02-02T16:33:11.942Z,11.86
2018-02-02T16:35:40.450Z,11.90
2018-02-02T16:38:08.949Z,11.89
2018-02-02T16:40:37.419Z,11.78
2018-02-02T16:43:05.944Z,11.68
2018-02-02T16:45:34.445Z,11.73
2018-02-02T16:48:02.908Z,11.71
2018-02-02T16:50:31.445Z,11.74
2018-02-02T16:52:59.970Z,11.73
2018-02-02T16:55:28.486Z,11.64
2018-02-02T16:57:56.994Z,11.47
2018-02-02T17:00:26.353Z,11.57
2018-02-02T17:02:54.854Z,11.55
2018-02-02T17:05:23.369Z,11.55
2018-02-02T17:07:51.896Z,11.59
2018-02-02T17:10:20.429Z,11.62
2018-02-02T17:12:48.938Z,11.62
2018-02-02T17:15:17.437Z,11.60
2018-02-02T17:17:45.937Z,11.56
2018-02-02T17:20:14.405Z,11.22
2018-02-02T17:22:42.910Z,11.36
2018-02-02T17:25:11.373Z,11.43
2018-02-02T17:27:39.882Z,11.44
2018-02-02T17:30:08.326Z,11.47
2018-02-02T17:32:36.790Z,11.46
2018-02-02T17:35:05.289Z,11.44
2018-02-02T17:37:33.749Z,11.42
2018-02-02T17:40:02.242Z,11.37
2018-02-02T17:42:30.749Z,11.28
2018-02-02T17:44:59.209Z,11.29
2018-02-02T17:47:27.672Z,11.28
2018-02-02T17:49:56.191Z,11.27
2018-02-02T17:52:24.702Z,11.24
2018-02-02T17:54:53.188Z,11.17
2018-02-02T17:57:21.688Z,11.08
2018-02-02T17:59:50.238Z,11.03
2018-02-02T18:02:18.764Z,10.93
2018-02-02T18:04:47.257Z,11.00
2018-02-02T18:07:15.794Z,10.88
2018-02-02T18:09:44.910Z,10.58
2018-02-02T18:12:13.409Z,10.80
2018-02-02T18:14:41.949Z,10.87
2018-02-02T18:17:10.430Z,10.89
2018-02-02T18:19:38.942Z,10.80
2018-02-02T18:22:07.459Z,10.80
2018-02-02T18:24:35.930Z,10.84
2018-02-02T18:27:04.430Z,10.86
2018-02-02T18:29:32.894Z,10.64
2018-02-02T18:32:01.406Z,10.65
2018-02-02T18:34:29.966Z,10.79
2018-02-02T18:36:58.459Z,10.71
2018-02-02T18:39:26.958Z,10.63
2018-02-02T18:41:55.502Z,10.62
2018-02-02T18:44:24.010Z,10.67
2018-02-02T18:46:52.481Z,10.67
2018-02-02T18:49:21.007Z,10.67
2018-02-02T18:51:49.486Z,10.67
2018-02-02T18:54:17.995Z,10.66
2018-02-02T18:56:46.473Z,10.42
2018-02-02T18:59:14.978Z,10.51
2018-02-02T19:01:43.445Z,10.46
2018-02-02T19:04:11.932Z,10.42
2018-02-02T19:06:40.394Z,10.49
2018-02-02T19:09:08.934Z,10.58
2018-02-02T19:11:37.433Z,10.58
2018-02-02T19:14:05.958Z,10.59
2018-02-02T19:16:34.460Z,10.53
2018-02-02T19:19:02.961Z,10.45
2018-02-02T19:21:31.484Z,10.46
2018-02-02T19:23:59.945Z,10.50
2018-02-02T19:26:28.405Z,10.46
2018-02-02T19:28:56.901Z,10.46
2018-02-02T19:31:25.366Z,10.29
2018-02-02T19:33:53.902Z,10.39
2018-02-02T19:36:22.384Z,10.38
2018-02-02T19:38:50.894Z,10.37
2018-02-02T19:41:19.365Z,10.01
2018-02-02T19:43:47.887Z,9.99
2018-02-02T19:46:16.373Z,9.97
2018-02-02T19:48:44.841Z,10.09
2018-02-02T19:51:13.333Z,10.01
2018-02-02T19:53:41.837Z,10.05
2018-02-02T19:56:10.322Z,10.16
2018-02-02T19:58:38.818Z,10.26
2018-02-02T20:01:07.314Z,10.30
2018-02-02T20:03:36.671Z,10.32
2018-02-02T20:06:05.134Z,10.34
2018-02-02T20:08:33.605Z,10.28
2018-02-02T20:11:02.109Z,10.15
2018-02-02T20:13:30.579Z,10.30
2018-02-02T20:15:59.103Z,10.30
2018-02-02T20:18:27.547Z,10.20
2018-02-02T20:20:56.045Z,10.21
2018-02-02T20:23:24.537Z,10.18
2018-02-02T20:25:52.997Z,10.27
2018-02-02T20:28:21.498Z,10.20
2018-02-02T20:30:49.981Z,10.27
2018-02-02T20:33:18.481Z,10.23
2018-02-02T20:35:46.955Z,10.12
2018-02-02T20:38:15.497Z,10.18
2018-02-02T20:40:43.969Z,10.21
2018-02-02T20:43:12.484Z,10.19
2018-02-02T20:45:41.029Z,10.21
2018-02-02T20:48:09.504Z,10.20
2018-02-02T20:50:38.013Z,10.19
2018-02-02T20:53:06.541Z,10.12
2018-02-02T20:55:35.030Z,10.09
2018-02-02T20:58:03.544Z,10.03
2018-02-02T21:00:31.994Z,10.02
2018-02-02T21:03:00.565Z,9.81
2018-02-02T21:05:29.106Z,9.92
2018-02-02T21:07:57.602Z,9.95
2018-02-02T21:10:26.117Z,9.94
2018-02-02T21:12:54.571Z,9.75
2018-02-02T21:15:23.074Z,9.72
2018-02-02T21:17:51.890Z,9.47
2018-02-02T21:20:20.358Z,9.64
2018-02-02T21:22:48.863Z,9.67
2018-02-02T21:25:17.340Z,9.67
2018-02-02T21:27:45.842Z,9.73
2018-02-02T21:30:14.332Z,9.74
2018-02-02T21:32:42.814Z,9.73
2018-02-02T21:35:11.305Z,9.70
2018-02-02T21:37:39.792Z,9.35
2018-02-02T21:40:08.297Z,9.47
2018-02-02T21:42:36.768Z,9.33
2018-02-02T21:45:05.236Z,9.36
2018-02-02T21:47:33.781Z,9.31
2018-02-02T21:50:02.242Z,9.23
2018-02-02T21:52:30.774Z,8.98
2018-02-02T21:54:59.262Z,8.84
2018-02-02T21:57:27.803Z,8.89
2018-02-02T21:59:56.297Z,8.92
2018-02-02T22:02:24.764Z,8.90
2018-02-02T22:04:53.273Z,8.58
2018-02-02T22:07:21.729Z,8.51
2018-02-02T22:09:50.207Z,8.50
2018-02-02T22:12:18.705Z,8.50
2018-02-02T22:14:47.198Z,8.49
2018-02-02T22:17:15.686Z,8.40
2018-02-02T22:19:44.133Z,8.41
2018-02-02T22:22:12.585Z,8.36
2018-02-02T22:24:41.037Z,8.04
2018-02-02T22:27:09.558Z,8.03
2018-02-02T22:29:38.008Z,8.16
2018-02-02T22:32:06.464Z,7.56
2018-02-02T22:34:34.861Z,7.60
2018-02-02T22:37:03.344Z,7.97
2018-02-02T22:39:31.736Z,8.07
2018-02-02T22:42:00.153Z,8.08
2018-02-02T22:44:28.593Z,8.32
2018-02-02T22:46:57.016Z,8.40
2018-02-02T22:49:25.464Z,8.51
2018-02-02T22:51:53.876Z,8.62
2018-02-02T22:54:22.398Z,8.71
2018-02-02T22:56:50.796Z,8.74
2018-02-02T22:59:19.222Z,8.79
2018-02-02T23:01:47.688Z,8.86
2018-02-02T23:04:16.125Z,8.90
2018-02-02T23:06:44.552Z,8.92
2018-02-02T23:09:13.017Z,8.93
2018-02-02T23:11:41.412Z,8.94
2018-02-02T23:14:09.868Z,8.91
2018-02-02T23:16:38.265Z,8.91
2018-02-02T23:19:06.711Z,8.90
2018-02-02T23:21:35.148Z,8.79
2018-02-02T23:24:03.553Z,8.70
2018-02-02T23:26:32.021Z,8.69
2018-02-02T23:29:00.452Z,8.70
2018-02-02T23:31:28.845Z,8.67
2018-02-02T23:33:57.289Z,8.63
2018-02-02T23:36:25.715Z,8.43
2018-02-02T23:38:54.153Z,8.46
2018-02-02T23:41:22.576Z,8.40
2018-02-02T23:43:50.985Z,8.24
2018-02-02T23:46:19.422Z,8.25
2018-02-02T23:48:47.834Z,7.76
2018-02-02T23:51:16.310Z,7.95
2018-02-02T23:53:44.709Z,7.98
2018-02-02T23:56:13.145Z,7.80
2018-02-02T23:58:41.584Z,7.92
